sensor_id;sensor_type;location;lat;lon;timestamp;P1;durP1;ratioP1;P2;durP2;ratioP2
31770;SDS011;18343;50.152;8.182;2023-02-01T00:01:40;14.30;;;10.32;;
31770;SDS011;18343;50.152;8.182;2023-02-01T00:04:25;13.50;;;8.90;;
31770;SDS011;18343;50.152;8.182;2023-02-01T00:07:11;14.07;;;9.07;;
31770;SDS011;18343;50.152;8.182;2023-02-01T00:09:56;11.32;;;8.07;;
31770;SDS011;18343;50.152;8.182;2023-02-01T00:12:40;11.02;;;7.75;;
31770;SDS011;18343;50.152;8.182;2023-02-01T00:15:25;11.88;;;7.82;;
31770;SDS011;18343;50.152;8.182;2023-02-01T00:18:12;10.43;;;6.28;;
31770;SDS011;18343;50.152;8.182;2023-02-01T00:20:56;12.90;;;6.50;;
31770;SDS011;18343;50.152;8.182;2023-02-01T00:23:43;11.18;;;7.25;;
31770;SDS011;18343;50.152;8.182;2023-02-01T00:26:31;11.05;;;6.82;;
31770;SDS011;18343;50.152;8.182;2023-02-01T00:29:18;8.10;;;6.30;;
31770;SDS011;18343;50.152;8.182;2023-02-01T00:32:04;8.95;;;5.55;;
31770;SDS011;18343;50.152;8.182;2023-02-01T00:34:48;10.40;;;7.57;;
31770;SDS011;18343;50.152;8.182;2023-02-01T00:37:33;13.27;;;6.85;;
31770;SDS011;18343;50.152;8.182;2023-02-01T00:40:19;13.10;;;6.57;;
31770;SDS011;18343;50.152;8.182;2023-02-01T00:43:05;14.27;;;7.13;;
31770;SDS011;18343;50.152;8.182;2023-02-01T00:45:50;11.70;;;5.97;;
31770;SDS011;18343;50.152;8.182;2023-02-01T00:48:35;9.23;;;6.43;;
31770;SDS011;18343;50.152;8.182;2023-02-01T00:51:21;12.02;;;6.03;;
31770;SDS011;18343;50.152;8.182;2023-02-01T00:54:08;12.07;;;6.38;;
31770;SDS011;18343;50.152;8.182;2023-02-01T00:56:54;10.18;;;6.00;;
31770;SDS011;18343;50.152;8.182;2023-02-01T00:59:38;11.57;;;6.93;;
31770;SDS011;18343;50.152;8.182;2023-02-01T01:02:24;13.20;;;6.60;;
31770;SDS011;18343;50.152;8.182;2023-02-01T01:05:10;14.50;;;7.22;;
31770;SDS011;18343;50.152;8.182;2023-02-01T01:07:55;13.20;;;7.28;;
31770;SDS011;18343;50.152;8.182;2023-02-01T01:10:40;14.15;;;7.60;;
31770;SDS011;18343;50.152;8.182;2023-02-01T01:13:27;12.65;;;7.55;;
31770;SDS011;18343;50.152;8.182;2023-02-01T01:16:11;10.55;;;7.13;;
31770;SDS011;18343;50.152;8.182;2023-02-01T01:18:56;12.45;;;7.85;;
31770;SDS011;18343;50.152;8.182;2023-02-01T01:21:42;12.25;;;8.13;;
31770;SDS011;18343;50.152;8.182;2023-02-01T01:24:26;12.02;;;7.55;;
31770;SDS011;18343;50.152;8.182;2023-02-01T01:27:11;12.00;;;7.88;;
31770;SDS011;18343;50.152;8.182;2023-02-01T01:29:58;9.52;;;7.18;;
31770;SDS011;18343;50.152;8.182;2023-02-01T01:32:42;13.45;;;7.90;;
31770;SDS011;18343;50.152;8.182;2023-02-01T01:35:28;9.73;;;7.05;;
31770;SDS011;18343;50.152;8.182;2023-02-01T01:38:13;11.73;;;8.13;;
31770;SDS011;18343;50.152;8.182;2023-02-01T01:40:58;11.30;;;7.85;;
31770;SDS011;18343;50.152;8.182;2023-02-01T01:43:53;12.27;;;8.25;;
31770;SDS011;18343;50.152;8.182;2023-02-01T01:46:41;10.90;;;8.05;;
31770;SDS011;18343;50.152;8.182;2023-02-01T01:49:25;11.35;;;7.72;;
31770;SDS011;18343;50.152;8.182;2023-02-01T01:52:10;12.02;;;7.63;;
31770;SDS011;18343;50.152;8.182;2023-02-01T01:54:56;12.60;;;6.95;;
31770;SDS011;18343;50.152;8.182;2023-02-01T01:57:43;13.25;;;7.90;;
31770;SDS011;18343;50.152;8.182;2023-02-01T02:00:33;10.90;;;6.85;;
31770;SDS011;18343;50.152;8.182;2023-02-01T02:03:21;11.88;;;5.88;;
31770;SDS011;18343;50.152;8.182;2023-02-01T02:06:17;10.32;;;6.22;;
31770;SDS011;18343;50.152;8.182;2023-02-01T02:09:15;11.30;;;5.75;;
31770;SDS011;18343;50.152;8.182;2023-02-01T02:12:00;11.65;;;4.80;;
31770;SDS011;18343;50.152;8.182;2023-02-01T02:14:46;9.02;;;5.50;;
31770;SDS011;18343;50.152;8.182;2023-02-01T02:17:32;9.50;;;5.28;;
31770;SDS011;18343;50.152;8.182;2023-02-01T02:20:38;11.83;;;4.53;;
31770;SDS011;18343;50.152;8.182;2023-02-01T02:23:46;7.47;;;5.00;;
31770;SDS011;18343;50.152;8.182;2023-02-01T02:27:19;14.48;;;5.28;;
31770;SDS011;18343;50.152;8.182;2023-02-01T02:39:48;10.20;;;4.35;;
31770;SDS011;18343;50.152;8.182;2023-02-01T02:42:42;10.68;;;4.47;;
31770;SDS011;18343;50.152;8.182;2023-02-01T02:45:37;12.73;;;4.90;;
31770;SDS011;18343;50.152;8.182;2023-02-01T02:48:29;9.60;;;4.78;;
31770;SDS011;18343;50.152;8.182;2023-02-01T02:51:20;11.10;;;4.78;;
31770;SDS011;18343;50.152;8.182;2023-02-01T02:54:11;8.82;;;4.57;;
31770;SDS011;18343;50.152;8.182;2023-02-01T02:57:01;10.63;;;4.68;;
31770;SDS011;18343;50.152;8.182;2023-02-01T02:59:51;7.75;;;4.10;;
31770;SDS011;18343;50.152;8.182;2023-02-01T03:02:39;10.95;;;4.47;;
31770;SDS011;18343;50.152;8.182;2023-02-01T03:05:24;11.25;;;4.55;;
31770;SDS011;18343;50.152;8.182;2023-02-01T03:08:11;8.93;;;4.00;;
31770;SDS011;18343;50.152;8.182;2023-02-01T03:10:59;8.40;;;4.60;;
31770;SDS011;18343;50.152;8.182;2023-02-01T03:13:49;7.43;;;4.43;;
31770;SDS011;18343;50.152;8.182;2023-02-01T03:16:40;9.25;;;4.22;;
31770;SDS011;18343;50.152;8.182;2023-02-01T03:19:31;9.27;;;3.70;;
31770;SDS011;18343;50.152;8.182;2023-02-01T03:22:23;16.52;;;4.30;;
31770;SDS011;18343;50.152;8.182;2023-02-01T03:25:12;12.13;;;5.10;;
31770;SDS011;18343;50.152;8.182;2023-02-01T03:28:02;7.50;;;3.67;;
31770;SDS011;18343;50.152;8.182;2023-02-01T03:30:51;11.40;;;4.07;;
31770;SDS011;18343;50.152;8.182;2023-02-01T03:33:36;8.40;;;3.92;;
31770;SDS011;18343;50.152;8.182;2023-02-01T03:36:23;12.98;;;3.88;;
31770;SDS011;18343;50.152;8.182;2023-02-01T03:39:15;10.13;;;3.75;;
31770;SDS011;18343;50.152;8.182;2023-02-01T03:42:07;8.65;;;3.92;;
31770;SDS011;18343;50.152;8.182;2023-02-01T03:44:57;13.95;;;4.93;;
31770;SDS011;18343;50.152;8.182;2023-02-01T03:47:50;10.95;;;4.57;;
31770;SDS011;18343;50.152;8.182;2023-02-01T03:50:42;12.35;;;5.45;;
31770;SDS011;18343;50.152;8.182;2023-02-01T03:53:32;10.80;;;4.57;;
31770;SDS011;18343;50.152;8.182;2023-02-01T03:56:20;9.20;;;4.32;;
31770;SDS011;18343;50.152;8.182;2023-02-01T03:59:09;11.10;;;4.78;;
31770;SDS011;18343;50.152;8.182;2023-02-01T04:01:54;8.63;;;4.43;;
31770;SDS011;18343;50.152;8.182;2023-02-01T04:04:39;13.30;;;4.63;;
31770;SDS011;18343;50.152;8.182;2023-02-01T04:07:24;11.90;;;5.05;;
31770;SDS011;18343;50.152;8.182;2023-02-01T04:10:09;11.05;;;5.15;;
31770;SDS011;18343;50.152;8.182;2023-02-01T04:12:54;12.85;;;5.07;;
31770;SDS011;18343;50.152;8.182;2023-02-01T04:15:40;18.52;;;5.07;;
31770;SDS011;18343;50.152;8.182;2023-02-01T04:18:26;18.13;;;5.93;;
31770;SDS011;18343;50.152;8.182;2023-02-01T04:21:10;19.65;;;5.68;;
31770;SDS011;18343;50.152;8.182;2023-02-01T04:23:55;19.55;;;5.60;;
31770;SDS011;18343;50.152;8.182;2023-02-01T04:26:40;14.85;;;5.55;;
31770;SDS011;18343;50.152;8.182;2023-02-01T04:29:24;13.63;;;5.15;;
31770;SDS011;18343;50.152;8.182;2023-02-01T04:32:11;17.15;;;6.75;;
31770;SDS011;18343;50.152;8.182;2023-02-01T04:34:55;14.15;;;5.40;;
31770;SDS011;18343;50.152;8.182;2023-02-01T04:37:40;18.38;;;4.80;;
31770;SDS011;18343;50.152;8.182;2023-02-01T04:40:25;11.85;;;4.93;;
31770;SDS011;18343;50.152;8.182;2023-02-01T04:43:10;14.13;;;4.47;;
31770;SDS011;18343;50.152;8.182;2023-02-01T04:45:55;18.77;;;5.20;;
31770;SDS011;18343;50.152;8.182;2023-02-01T04:48:41;17.58;;;5.07;;
31770;SDS011;18343;50.152;8.182;2023-02-01T04:51:26;15.45;;;4.88;;
31770;SDS011;18343;50.152;8.182;2023-02-01T04:54:12;19.40;;;4.57;;
31770;SDS011;18343;50.152;8.182;2023-02-01T04:56:58;14.75;;;5.43;;
31770;SDS011;18343;50.152;8.182;2023-02-01T04:59:43;25.13;;;5.55;;
31770;SDS011;18343;50.152;8.182;2023-02-01T05:02:27;16.10;;;4.97;;
31770;SDS011;18343;50.152;8.182;2023-02-01T05:05:13;20.83;;;6.68;;
31770;SDS011;18343;50.152;8.182;2023-02-01T05:08:00;21.10;;;4.82;;
31770;SDS011;18343;50.152;8.182;2023-02-01T05:10:45;14.98;;;4.97;;
31770;SDS011;18343;50.152;8.182;2023-02-01T05:13:29;22.20;;;7.65;;
31770;SDS011;18343;50.152;8.182;2023-02-01T05:16:14;19.55;;;4.72;;
31770;SDS011;18343;50.152;8.182;2023-02-01T05:18:59;22.42;;;5.78;;
31770;SDS011;18343;50.152;8.182;2023-02-01T05:21:47;11.90;;;4.65;;
31770;SDS011;18343;50.152;8.182;2023-02-01T05:24:32;19.55;;;5.25;;
31770;SDS011;18343;50.152;8.182;2023-02-01T05:27:16;15.45;;;4.88;;
31770;SDS011;18343;50.152;8.182;2023-02-01T05:30:01;22.38;;;5.60;;
31770;SDS011;18343;50.152;8.182;2023-02-01T05:32:48;17.38;;;5.65;;
31770;SDS011;18343;50.152;8.182;2023-02-01T05:35:34;26.30;;;5.60;;
31770;SDS011;18343;50.152;8.182;2023-02-01T05:38:20;24.83;;;7.13;;
31770;SDS011;18343;50.152;8.182;2023-02-01T05:41:05;25.55;;;5.78;;
31770;SDS011;18343;50.152;8.182;2023-02-01T05:43:49;18.42;;;5.65;;
31770;SDS011;18343;50.152;8.182;2023-02-01T05:46:34;22.13;;;5.80;;
31770;SDS011;18343;50.152;8.182;2023-02-01T05:49:19;28.50;;;7.05;;
31770;SDS011;18343;50.152;8.182;2023-02-01T05:52:04;18.55;;;5.72;;
31770;SDS011;18343;50.152;8.182;2023-02-01T05:54:50;21.88;;;5.93;;
31770;SDS011;18343;50.152;8.182;2023-02-01T05:57:35;33.70;;;7.28;;
31770;SDS011;18343;50.152;8.182;2023-02-01T06:00:21;17.90;;;6.00;;
31770;SDS011;18343;50.152;8.182;2023-02-01T06:03:15;24.23;;;5.90;;
31770;SDS011;18343;50.152;8.182;2023-02-01T06:06:00;24.05;;;6.10;;
31770;SDS011;18343;50.152;8.182;2023-02-01T06:08:47;18.42;;;6.05;;
31770;SDS011;18343;50.152;8.182;2023-02-01T06:11:39;16.88;;;5.07;;
31770;SDS011;18343;50.152;8.182;2023-02-01T06:14:25;21.73;;;5.95;;
31770;SDS011;18343;50.152;8.182;2023-02-01T06:17:14;21.90;;;6.28;;
31770;SDS011;18343;50.152;8.182;2023-02-01T06:19:58;26.45;;;5.65;;
31770;SDS011;18343;50.152;8.182;2023-02-01T06:22:43;19.70;;;5.50;;
31770;SDS011;18343;50.152;8.182;2023-02-01T06:25:28;29.00;;;7.85;;
31770;SDS011;18343;50.152;8.182;2023-02-01T06:28:15;25.05;;;6.68;;
31770;SDS011;18343;50.152;8.182;2023-02-01T06:31:03;26.30;;;6.32;;
31770;SDS011;18343;50.152;8.182;2023-02-01T06:33:50;27.42;;;6.18;;
31770;SDS011;18343;50.152;8.182;2023-02-01T06:36:36;19.80;;;6.88;;
31770;SDS011;18343;50.152;8.182;2023-02-01T06:39:20;26.00;;;5.13;;
31770;SDS011;18343;50.152;8.182;2023-02-01T06:42:06;18.58;;;4.93;;
31770;SDS011;18343;50.152;8.182;2023-02-01T06:44:52;26.92;;;6.47;;
31770;SDS011;18343;50.152;8.182;2023-02-01T06:47:37;21.95;;;4.60;;
31770;SDS011;18343;50.152;8.182;2023-02-01T06:50:23;20.67;;;4.88;;
31770;SDS011;18343;50.152;8.182;2023-02-01T06:53:08;20.73;;;4.88;;
31770;SDS011;18343;50.152;8.182;2023-02-01T06:55:53;21.38;;;5.20;;
31770;SDS011;18343;50.152;8.182;2023-02-01T06:58:39;16.33;;;4.85;;
31770;SDS011;18343;50.152;8.182;2023-02-01T07:01:25;18.95;;;4.65;;
31770;SDS011;18343;50.152;8.182;2023-02-01T07:04:10;19.02;;;4.88;;
31770;SDS011;18343;50.152;8.182;2023-02-01T07:06:59;23.13;;;5.07;;
31770;SDS011;18343;50.152;8.182;2023-02-01T07:09:44;13.70;;;4.35;;
31770;SDS011;18343;50.152;8.182;2023-02-01T07:12:29;12.13;;;4.22;;
31770;SDS011;18343;50.152;8.182;2023-02-01T07:15:13;18.38;;;4.50;;
31770;SDS011;18343;50.152;8.182;2023-02-01T07:18:03;17.27;;;4.68;;
31770;SDS011;18343;50.152;8.182;2023-02-01T07:20:49;19.05;;;4.32;;
31770;SDS011;18343;50.152;8.182;2023-02-01T07:23:34;23.48;;;4.57;;
31770;SDS011;18343;50.152;8.182;2023-02-01T07:26:19;22.25;;;5.70;;
31770;SDS011;18343;50.152;8.182;2023-02-01T07:29:04;20.08;;;4.95;;
31770;SDS011;18343;50.152;8.182;2023-02-01T07:31:50;21.55;;;4.80;;
31770;SDS011;18343;50.152;8.182;2023-02-01T07:34:36;22.50;;;4.78;;
31770;SDS011;18343;50.152;8.182;2023-02-01T07:37:21;19.10;;;5.32;;
31770;SDS011;18343;50.152;8.182;2023-02-01T07:40:07;14.65;;;5.47;;
31770;SDS011;18343;50.152;8.182;2023-02-01T07:42:54;17.58;;;4.13;;
31770;SDS011;18343;50.152;8.182;2023-02-01T07:45:39;20.73;;;4.90;;
31770;SDS011;18343;50.152;8.182;2023-02-01T07:48:29;23.80;;;4.95;;
31770;SDS011;18343;50.152;8.182;2023-02-01T07:51:16;14.13;;;4.10;;
31770;SDS011;18343;50.152;8.182;2023-02-01T07:54:04;19.92;;;4.07;;
31770;SDS011;18343;50.152;8.182;2023-02-01T07:56:49;20.23;;;3.88;;
31770;SDS011;18343;50.152;8.182;2023-02-01T07:59:34;20.35;;;5.15;;
31770;SDS011;18343;50.152;8.182;2023-02-01T08:02:19;24.85;;;4.07;;
31770;SDS011;18343;50.152;8.182;2023-02-01T08:05:06;14.80;;;3.10;;
31770;SDS011;18343;50.152;8.182;2023-02-01T08:07:53;18.50;;;4.63;;
31770;SDS011;18343;50.152;8.182;2023-02-01T08:10:37;17.83;;;3.95;;
31770;SDS011;18343;50.152;8.182;2023-02-01T08:13:22;17.95;;;3.58;;
31770;SDS011;18343;50.152;8.182;2023-02-01T08:16:07;26.70;;;4.55;;
31770;SDS011;18343;50.152;8.182;2023-02-01T08:18:53;17.33;;;3.47;;
31770;SDS011;18343;50.152;8.182;2023-02-01T08:21:38;15.75;;;3.25;;
31770;SDS011;18343;50.152;8.182;2023-02-01T08:24:24;16.05;;;4.30;;
31770;SDS011;18343;50.152;8.182;2023-02-01T08:27:08;20.67;;;4.40;;
31770;SDS011;18343;50.152;8.182;2023-02-01T08:29:55;15.63;;;4.22;;
31770;SDS011;18343;50.152;8.182;2023-02-01T08:32:40;26.70;;;4.88;;
31770;SDS011;18343;50.152;8.182;2023-02-01T08:35:25;16.80;;;4.07;;
31770;SDS011;18343;50.152;8.182;2023-02-01T08:38:09;18.50;;;4.32;;
31770;SDS011;18343;50.152;8.182;2023-02-01T08:40:56;23.35;;;6.75;;
31770;SDS011;18343;50.152;8.182;2023-02-01T08:43:40;17.70;;;4.22;;
31770;SDS011;18343;50.152;8.182;2023-02-01T08:46:26;18.50;;;4.80;;
31770;SDS011;18343;50.152;8.182;2023-02-01T08:49:11;21.25;;;4.95;;
31770;SDS011;18343;50.152;8.182;2023-02-01T08:51:56;15.05;;;4.50;;
31770;SDS011;18343;50.152;8.182;2023-02-01T08:54:40;15.57;;;4.78;;
31770;SDS011;18343;50.152;8.182;2023-02-01T08:57:27;24.95;;;4.50;;
31770;SDS011;18343;50.152;8.182;2023-02-01T09:00:13;18.67;;;4.00;;
31770;SDS011;18343;50.152;8.182;2023-02-01T09:03:00;16.00;;;4.25;;
31770;SDS011;18343;50.152;8.182;2023-02-01T09:05:47;17.65;;;3.58;;
31770;SDS011;18343;50.152;8.182;2023-02-01T09:08:33;19.88;;;3.78;;
31770;SDS011;18343;50.152;8.182;2023-02-01T09:11:24;19.50;;;4.90;;
31770;SDS011;18343;50.152;8.182;2023-02-01T09:14:10;11.70;;;3.75;;
31770;SDS011;18343;50.152;8.182;2023-02-01T09:16:55;16.30;;;4.20;;
31770;SDS011;18343;50.152;8.182;2023-02-01T09:19:40;14.23;;;3.55;;
31770;SDS011;18343;50.152;8.182;2023-02-01T09:22:25;13.43;;;4.10;;
31770;SDS011;18343;50.152;8.182;2023-02-01T09:25:11;18.42;;;4.05;;
31770;SDS011;18343;50.152;8.182;2023-02-01T09:27:59;16.77;;;3.65;;
31770;SDS011;18343;50.152;8.182;2023-02-01T09:30:45;17.27;;;4.07;;
31770;SDS011;18343;50.152;8.182;2023-02-01T09:33:30;12.25;;;3.28;;
31770;SDS011;18343;50.152;8.182;2023-02-01T09:36:15;14.98;;;3.22;;
31770;SDS011;18343;50.152;8.182;2023-02-01T09:38:59;12.25;;;3.85;;
31770;SDS011;18343;50.152;8.182;2023-02-01T09:41:48;16.00;;;4.38;;
31770;SDS011;18343;50.152;8.182;2023-02-01T09:47:56;20.80;;;4.43;;
31770;SDS011;18343;50.152;8.182;2023-02-01T09:50:48;13.82;;;3.70;;
31770;SDS011;18343;50.152;8.182;2023-02-01T09:53:40;16.92;;;3.72;;
31770;SDS011;18343;50.152;8.182;2023-02-01T09:56:36;15.77;;;3.92;;
31770;SDS011;18343;50.152;8.182;2023-02-01T09:59:32;15.77;;;3.55;;
31770;SDS011;18343;50.152;8.182;2023-02-01T10:02:32;15.85;;;3.83;;
31770;SDS011;18343;50.152;8.182;2023-02-01T10:05:34;9.77;;;3.03;;
31770;SDS011;18343;50.152;8.182;2023-02-01T10:08:43;16.30;;;3.45;;
31770;SDS011;18343;50.152;8.182;2023-02-01T10:12:06;20.38;;;4.32;;
31770;SDS011;18343;50.152;8.182;2023-02-01T10:15:35;13.27;;;3.45;;
31770;SDS011;18343;50.152;8.182;2023-02-01T10:22:20;14.68;;;4.40;;
31770;SDS011;18343;50.152;8.182;2023-02-01T10:25:20;19.15;;;4.00;;
31770;SDS011;18343;50.152;8.182;2023-02-01T10:28:11;17.40;;;3.38;;
31770;SDS011;18343;50.152;8.182;2023-02-01T10:31:00;12.70;;;3.20;;
31770;SDS011;18343;50.152;8.182;2023-02-01T10:33:45;14.75;;;3.05;;
31770;SDS011;18343;50.152;8.182;2023-02-01T10:36:34;19.38;;;3.78;;
31770;SDS011;18343;50.152;8.182;2023-02-01T10:39:25;15.95;;;4.20;;
31770;SDS011;18343;50.152;8.182;2023-02-01T10:42:10;11.88;;;3.35;;
31770;SDS011;18343;50.152;8.182;2023-02-01T10:44:55;18.38;;;3.65;;
31770;SDS011;18343;50.152;8.182;2023-02-01T10:47:47;18.67;;;3.63;;
31770;SDS011;18343;50.152;8.182;2023-02-01T10:50:38;24.90;;;4.40;;
31770;SDS011;18343;50.152;8.182;2023-02-01T10:53:34;19.48;;;3.58;;
31770;SDS011;18343;50.152;8.182;2023-02-01T10:56:26;21.27;;;4.05;;
31770;SDS011;18343;50.152;8.182;2023-02-01T10:59:14;22.92;;;4.35;;
31770;SDS011;18343;50.152;8.182;2023-02-01T11:02:02;15.90;;;3.50;;
31770;SDS011;18343;50.152;8.182;2023-02-01T11:05:03;16.25;;;4.18;;
31770;SDS011;18343;50.152;8.182;2023-02-01T11:07:51;11.55;;;3.47;;
31770;SDS011;18343;50.152;8.182;2023-02-01T11:10:39;13.35;;;3.78;;
31770;SDS011;18343;50.152;8.182;2023-02-01T11:13:31;13.32;;;3.70;;
31770;SDS011;18343;50.152;8.182;2023-02-01T11:16:20;18.13;;;3.30;;
31770;SDS011;18343;50.152;8.182;2023-02-01T11:19:11;15.32;;;3.88;;
31770;SDS011;18343;50.152;8.182;2023-02-01T11:21:59;17.45;;;3.08;;
31770;SDS011;18343;50.152;8.182;2023-02-01T11:24:45;12.63;;;4.40;;
31770;SDS011;18343;50.152;8.182;2023-02-01T11:30:49;13.40;;;3.92;;
31770;SDS011;18343;50.152;8.182;2023-02-01T11:33:44;15.02;;;4.20;;
31770;SDS011;18343;50.152;8.182;2023-02-01T11:36:35;14.57;;;3.58;;
31770;SDS011;18343;50.152;8.182;2023-02-01T11:39:24;13.52;;;2.78;;
31770;SDS011;18343;50.152;8.182;2023-02-01T11:42:13;13.90;;;3.78;;
31770;SDS011;18343;50.152;8.182;2023-02-01T11:45:19;16.83;;;3.63;;
31770;SDS011;18343;50.152;8.182;2023-02-01T11:48:14;23.42;;;5.82;;
31770;SDS011;18343;50.152;8.182;2023-02-01T11:51:14;20.02;;;5.15;;
31770;SDS011;18343;50.152;8.182;2023-02-01T11:54:16;10.77;;;2.90;;
31770;SDS011;18343;50.152;8.182;2023-02-01T11:57:33;22.35;;;3.28;;
31770;SDS011;18343;50.152;8.182;2023-02-01T12:03:55;17.48;;;3.15;;
31770;SDS011;18343;50.152;8.182;2023-02-01T12:07:17;20.85;;;3.53;;
31770;SDS011;18343;50.152;8.182;2023-02-01T12:10:11;23.25;;;5.80;;
31770;SDS011;18343;50.152;8.182;2023-02-01T12:13:14;11.40;;;2.60;;
31770;SDS011;18343;50.152;8.182;2023-02-01T12:16:11;14.27;;;3.25;;
31770;SDS011;18343;50.152;8.182;2023-02-01T12:19:17;10.38;;;3.03;;
31770;SDS011;18343;50.152;8.182;2023-02-01T12:22:46;18.50;;;3.88;;
31770;SDS011;18343;50.152;8.182;2023-02-01T12:25:52;15.40;;;3.53;;
31770;SDS011;18343;50.152;8.182;2023-02-01T12:29:04;16.85;;;2.83;;
31770;SDS011;18343;50.152;8.182;2023-02-01T12:35:16;13.90;;;3.72;;
31770;SDS011;18343;50.152;8.182;2023-02-01T12:41:35;19.25;;;4.65;;
31770;SDS011;18343;50.152;8.182;2023-02-01T12:44:35;21.77;;;4.40;;
31770;SDS011;18343;50.152;8.182;2023-02-01T12:47:28;21.88;;;3.92;;
31770;SDS011;18343;50.152;8.182;2023-02-01T12:50:22;23.42;;;4.22;;
31770;SDS011;18343;50.152;8.182;2023-02-01T12:53:13;20.90;;;3.50;;
31770;SDS011;18343;50.152;8.182;2023-02-01T12:56:03;15.50;;;3.22;;
31770;SDS011;18343;50.152;8.182;2023-02-01T12:58:55;9.13;;;3.15;;
31770;SDS011;18343;50.152;8.182;2023-02-01T13:01:45;8.82;;;2.70;;
31770;SDS011;18343;50.152;8.182;2023-02-01T13:04:41;15.85;;;2.65;;
31770;SDS011;18343;50.152;8.182;2023-02-01T13:07:41;16.67;;;2.75;;
31770;SDS011;18343;50.152;8.182;2023-02-01T13:10:36;13.27;;;2.45;;
31770;SDS011;18343;50.152;8.182;2023-02-01T13:13:28;15.52;;;3.47;;
31770;SDS011;18343;50.152;8.182;2023-02-01T13:16:23;21.65;;;3.85;;
31770;SDS011;18343;50.152;8.182;2023-02-01T13:19:13;11.10;;;2.83;;
31770;SDS011;18343;50.152;8.182;2023-02-01T13:22:03;9.32;;;2.13;;
31770;SDS011;18343;50.152;8.182;2023-02-01T13:24:56;12.85;;;3.05;;
31770;SDS011;18343;50.152;8.182;2023-02-01T13:27:44;16.23;;;3.20;;
31770;SDS011;18343;50.152;8.182;2023-02-01T13:30:33;9.95;;;3.08;;
31770;SDS011;18343;50.152;8.182;2023-02-01T13:33:39;9.93;;;2.20;;
31770;SDS011;18343;50.152;8.182;2023-02-01T13:36:43;20.08;;;2.97;;
31770;SDS011;18343;50.152;8.182;2023-02-01T13:39:45;19.33;;;3.45;;
31770;SDS011;18343;50.152;8.182;2023-02-01T13:42:45;12.63;;;2.55;;
31770;SDS011;18343;50.152;8.182;2023-02-01T13:45:34;13.77;;;2.72;;
31770;SDS011;18343;50.152;8.182;2023-02-01T13:48:26;11.20;;;2.70;;
31770;SDS011;18343;50.152;8.182;2023-02-01T13:51:17;11.18;;;2.50;;
31770;SDS011;18343;50.152;8.182;2023-02-01T13:54:30;13.63;;;2.40;;
31770;SDS011;18343;50.152;8.182;2023-02-01T13:57:30;16.40;;;2.90;;
31770;SDS011;18343;50.152;8.182;2023-02-01T14:00:26;12.50;;;2.85;;
31770;SDS011;18343;50.152;8.182;2023-02-01T14:03:14;13.55;;;2.65;;
31770;SDS011;18343;50.152;8.182;2023-02-01T14:06:44;12.82;;;2.35;;
31770;SDS011;18343;50.152;8.182;2023-02-01T14:15:31;12.57;;;2.28;;
31770;SDS011;18343;50.152;8.182;2023-02-01T14:21:47;9.90;;;2.55;;
31770;SDS011;18343;50.152;8.182;2023-02-01T14:24:34;10.57;;;2.70;;
31770;SDS011;18343;50.152;8.182;2023-02-01T14:27:20;12.88;;;2.40;;
31770;SDS011;18343;50.152;8.182;2023-02-01T14:30:14;22.45;;;3.00;;
31770;SDS011;18343;50.152;8.182;2023-02-01T14:33:00;14.35;;;2.03;;
31770;SDS011;18343;50.152;8.182;2023-02-01T14:36:06;17.13;;;2.22;;
31770;SDS011;18343;50.152;8.182;2023-02-01T14:38:54;13.05;;;2.50;;
31770;SDS011;18343;50.152;8.182;2023-02-01T14:41:39;12.95;;;3.03;;
31770;SDS011;18343;50.152;8.182;2023-02-01T14:44:34;14.65;;;2.80;;
31770;SDS011;18343;50.152;8.182;2023-02-01T14:47:27;13.35;;;2.47;;
31770;SDS011;18343;50.152;8.182;2023-02-01T14:50:22;16.67;;;2.97;;
31770;SDS011;18343;50.152;8.182;2023-02-01T14:53:17;18.30;;;2.50;;
31770;SDS011;18343;50.152;8.182;2023-02-01T14:56:08;16.63;;;2.80;;
31770;SDS011;18343;50.152;8.182;2023-02-01T14:59:00;17.88;;;3.17;;
31770;SDS011;18343;50.152;8.182;2023-02-01T15:01:52;12.65;;;2.67;;
31770;SDS011;18343;50.152;8.182;2023-02-01T15:04:42;16.30;;;3.20;;
31770;SDS011;18343;50.152;8.182;2023-02-01T15:07:27;14.45;;;2.72;;
31770;SDS011;18343;50.152;8.182;2023-02-01T15:10:13;15.10;;;2.60;;
31770;SDS011;18343;50.152;8.182;2023-02-01T15:12:58;16.65;;;2.88;;
31770;SDS011;18343;50.152;8.182;2023-02-01T15:15:43;11.68;;;2.30;;
31770;SDS011;18343;50.152;8.182;2023-02-01T15:18:28;9.48;;;2.53;;
31770;SDS011;18343;50.152;8.182;2023-02-01T15:21:18;12.52;;;2.58;;
31770;SDS011;18343;50.152;8.182;2023-02-01T15:24:10;13.77;;;2.83;;
31770;SDS011;18343;50.152;8.182;2023-02-01T15:26:56;8.13;;;2.00;;
31770;SDS011;18343;50.152;8.182;2023-02-01T15:29:47;10.00;;;1.98;;
31770;SDS011;18343;50.152;8.182;2023-02-01T15:32:33;17.02;;;3.40;;
31770;SDS011;18343;50.152;8.182;2023-02-01T15:35:40;12.32;;;2.90;;
31770;SDS011;18343;50.152;8.182;2023-02-01T15:38:39;19.75;;;2.53;;
31770;SDS011;18343;50.152;8.182;2023-02-01T15:41:28;15.02;;;2.65;;
31770;SDS011;18343;50.152;8.182;2023-02-01T15:44:16;4.72;;;1.60;;
31770;SDS011;18343;50.152;8.182;2023-02-01T15:47:13;15.88;;;2.63;;
31770;SDS011;18343;50.152;8.182;2023-02-01T15:50:01;19.70;;;2.72;;
31770;SDS011;18343;50.152;8.182;2023-02-01T15:52:48;11.30;;;3.13;;
31770;SDS011;18343;50.152;8.182;2023-02-01T15:55:37;10.20;;;2.45;;
31770;SDS011;18343;50.152;8.182;2023-02-01T15:58:23;12.13;;;2.58;;
31770;SDS011;18343;50.152;8.182;2023-02-01T16:01:11;9.30;;;1.58;;
31770;SDS011;18343;50.152;8.182;2023-02-01T16:04:04;21.67;;;3.40;;
31770;SDS011;18343;50.152;8.182;2023-02-01T16:07:01;10.40;;;2.13;;
31770;SDS011;18343;50.152;8.182;2023-02-01T16:10:19;11.40;;;1.92;;
31770;SDS011;18343;50.152;8.182;2023-02-01T16:13:11;10.27;;;3.30;;
31770;SDS011;18343;50.152;8.182;2023-02-01T16:15:59;21.45;;;3.60;;
31770;SDS011;18343;50.152;8.182;2023-02-01T16:18:44;22.88;;;4.30;;
31770;SDS011;18343;50.152;8.182;2023-02-01T16:21:29;20.38;;;4.43;;
31770;SDS011;18343;50.152;8.182;2023-02-01T16:24:14;14.10;;;4.72;;
31770;SDS011;18343;50.152;8.182;2023-02-01T16:26:58;12.07;;;2.88;;
31770;SDS011;18343;50.152;8.182;2023-02-01T16:29:44;18.00;;;5.20;;
31770;SDS011;18343;50.152;8.182;2023-02-01T16:32:29;15.82;;;3.75;;
31770;SDS011;18343;50.152;8.182;2023-02-01T16:35:15;16.88;;;5.82;;
31770;SDS011;18343;50.152;8.182;2023-02-01T16:38:08;10.45;;;2.10;;
31770;SDS011;18343;50.152;8.182;2023-02-01T16:40:56;19.98;;;4.68;;
31770;SDS011;18343;50.152;8.182;2023-02-01T16:43:40;34.65;;;9.80;;
31770;SDS011;18343;50.152;8.182;2023-02-01T16:46:34;16.48;;;6.32;;
31770;SDS011;18343;50.152;8.182;2023-02-01T16:49:23;15.13;;;3.38;;
31770;SDS011;18343;50.152;8.182;2023-02-01T16:52:11;15.10;;;4.45;;
31770;SDS011;18343;50.152;8.182;2023-02-01T16:54:59;10.77;;;3.00;;
31770;SDS011;18343;50.152;8.182;2023-02-01T16:57:44;13.93;;;3.70;;
31770;SDS011;18343;50.152;8.182;2023-02-01T17:00:29;13.38;;;3.17;;
31770;SDS011;18343;50.152;8.182;2023-02-01T17:03:16;15.20;;;3.08;;
31770;SDS011;18343;50.152;8.182;2023-02-01T17:06:01;21.80;;;3.70;;
31770;SDS011;18343;50.152;8.182;2023-02-01T17:08:47;15.38;;;3.13;;
31770;SDS011;18343;50.152;8.182;2023-02-01T17:11:36;6.55;;;2.10;;
31770;SDS011;18343;50.152;8.182;2023-02-01T17:14:21;9.48;;;2.40;;
31770;SDS011;18343;50.152;8.182;2023-02-01T17:17:06;17.83;;;2.67;;
31770;SDS011;18343;50.152;8.182;2023-02-01T17:19:53;10.93;;;2.75;;
31770;SDS011;18343;50.152;8.182;2023-02-01T17:22:37;12.98;;;2.65;;
31770;SDS011;18343;50.152;8.182;2023-02-01T17:25:22;12.77;;;2.78;;
31770;SDS011;18343;50.152;8.182;2023-02-01T17:28:14;13.05;;;3.58;;